»·PEaware :: WJA1699 KLAX-CYVR

WJA1699 :: KLAX-CYVR

FLIGHT INFORMATION

Flight Status: Arrived
Operator:
Westjet Airlines
More flights by this operator :: More flights under this callsign
Pilot: James R. (4152)
Aircraft: BOEING 737-800
(B738)
More flights by this aircraft type
Origin: KLAX Los Angeles Intl
United States
Destination: CYVR Vancouver Intl
Canada
More flights between these airports :: More routes between these airports
Route: +CASTA4 GMN FRA LKV PAE GRIZZ5
File this flight plan on PilotEdge
Remarks:
Altitude:
(Current/Filed)
37,000ft
Speed:
(Current/Filed)
472kts
Departed: 04-Oct-15 03:33 PM
Arrived: 04-Oct-15 05:55 PM
Distance/Time
Traveled:
939nm/2:22
Distance/Time
To Go:
Arrived

Flight Plot

Page will automatically refresh every two minutes.


Map Options




Map Legend


Flown Route
Filed Route
Departure Airport
Arrival Airport
Navaid (VOR, NDB)
Fix

Horizontal Profiles

Position Reports

Time Latitude Longitude Heading Altitude Ground
Speed
04-Oct-15 15:32 33.946924 -118.404979 117 134ft 0kts
04-Oct-15 15:33 33.946924 -118.404979 117 134ft 0kts
04-Oct-15 15:34 33.946924 -118.404979 117 134ft 0kts
04-Oct-15 15:35 33.946924 -118.404979 117 134ft 0kts
04-Oct-15 15:36 33.946924 -118.404979 117 134ft 0kts
04-Oct-15 15:37 33.946924 -118.404979 117 134ft 0kts
04-Oct-15 15:38 33.946924 -118.404979 117 134ft 0kts
04-Oct-15 15:39 33.946924 -118.404979 117 134ft 0kts
04-Oct-15 15:40 33.947071 -118.405310 117 134ft 1kts
04-Oct-15 15:41 33.947300 -118.405826 117 134ft 1kts
04-Oct-15 15:42 33.947305 -118.405837 117 134ft 0kts
04-Oct-15 15:43 33.947305 -118.405837 117 134ft 0kts
04-Oct-15 15:44 33.947782 -118.405891 327 134ft 13kts
04-Oct-15 15:45 33.948823 -118.403964 84 134ft 14kts
04-Oct-15 15:46 33.949215 -118.401889 30 134ft 1kts
04-Oct-15 15:47 33.948960 -118.413965 262 136ft 146kts
04-Oct-15 15:48 33.942556 -118.476671 262 2431ft 212kts
04-Oct-15 15:49 33.938022 -118.562738 265 3853ft 284kts
04-Oct-15 15:50 33.940671 -118.648989 304 5973ft 260kts
04-Oct-15 15:51 34.000016 -118.698697 324 6002ft 259kts
04-Oct-15 15:52 34.069159 -118.690022 31 7789ft 289kts
04-Oct-15 15:53 34.140017 -118.640660 17 10595ft 297kts
04-Oct-15 15:54 34.227646 -118.611899 357 12330ft 358kts
04-Oct-15 15:55 34.328272 -118.626204 338 14095ft 367kts
04-Oct-15 15:56 34.424420 -118.672560 334 16956ft 377kts
04-Oct-15 15:57 34.523818 -118.721806 334 19469ft 392kts
04-Oct-15 15:58 34.626830 -118.772897 334 21714ft 406kts
04-Oct-15 15:59 34.733457 -118.826085 334 23323ft 421kts
04-Oct-15 16:00 34.844754 -118.875502 341 25270ft 432kts
04-Oct-15 16:01 34.963238 -118.911509 342 26855ft 443kts
04-Oct-15 16:02 35.084071 -118.948735 342 28250ft 453kts
04-Oct-15 16:03 35.207766 -118.987172 342 29532ft 461kts
04-Oct-15 16:04 35.331696 -119.025902 342 31154ft 457kts
04-Oct-15 16:05 35.454593 -119.064507 342 32641ft 454kts
04-Oct-15 16:06 35.576811 -119.103043 342 34027ft 451kts
04-Oct-15 16:07 35.698221 -119.141452 342 35314ft 448kts
04-Oct-15 16:08 35.818901 -119.179752 342 36466ft 446kts
04-Oct-15 16:09 35.939456 -119.218133 342 36992ft 450kts
04-Oct-15 16:10 36.040252 -119.250318 342 36996ft 445kts
04-Oct-15 16:11 36.160563 -119.288845 342 36997ft 446kts
04-Oct-15 16:12 36.280841 -119.327484 342 36996ft 446kts
04-Oct-15 16:13 36.401048 -119.366224 342 36996ft 446kts
04-Oct-15 16:14 36.520846 -119.404956 342 36996ft 446kts
04-Oct-15 16:15 36.641315 -119.444030 342 36996ft 446kts
04-Oct-15 16:16 36.761565 -119.483161 342 36996ft 446kts
04-Oct-15 16:17 36.881467 -119.522217 342 36996ft 445kts
04-Oct-15 16:18 37.001913 -119.561718 342 36996ft 445kts
04-Oct-15 16:19 37.122128 -119.598827 347 36997ft 448kts
04-Oct-15 16:20 37.246320 -119.618478 349 36996ft 449kts
04-Oct-15 16:21 37.370654 -119.637596 349 36996ft 449kts
04-Oct-15 16:22 37.494966 -119.657047 349 36996ft 449kts
04-Oct-15 16:23 37.619175 -119.676626 349 36996ft 449kts
04-Oct-15 16:24 37.743271 -119.696320 349 36996ft 449kts
04-Oct-15 16:25 37.867344 -119.716101 349 36996ft 449kts
04-Oct-15 16:26 37.991151 -119.735916 349 36996ft 449kts
04-Oct-15 16:27 38.115415 -119.755875 349 36996ft 449kts
04-Oct-15 16:28 38.239497 -119.775874 349 36996ft 449kts
04-Oct-15 16:29 38.363588 -119.795943 349 36996ft 449kts
04-Oct-15 16:30 38.487389 -119.816035 349 36996ft 449kts
04-Oct-15 16:31 38.612038 -119.836336 349 36996ft 449kts
04-Oct-15 16:32 38.735602 -119.856529 349 37038ft 448kts
04-Oct-15 16:33 38.859799 -119.876898 349 37536ft 449kts
04-Oct-15 16:34 38.983926 -119.897327 349 38036ft 449kts
04-Oct-15 16:35 39.108257 -119.917862 349 38537ft 449kts
04-Oct-15 16:36 39.232307 -119.938423 349 38982ft 450kts
04-Oct-15 16:37 39.356359 -119.959058 349 38996ft 448kts
04-Oct-15 16:38 39.480199 -119.979732 349 38996ft 449kts
04-Oct-15 16:39 39.602843 -120.000279 349 38996ft 449kts
04-Oct-15 16:40 39.727051 -120.021163 349 38997ft 449kts
04-Oct-15 16:41 39.850856 -120.042056 349 38996ft 449kts
04-Oct-15 16:42 39.974884 -120.063062 349 38997ft 449kts
04-Oct-15 16:43 40.098560 -120.084085 349 38996ft 449kts
04-Oct-15 16:44 40.222531 -120.105236 349 38996ft 449kts
04-Oct-15 16:45 40.346653 -120.126491 349 38996ft 449kts
04-Oct-15 16:46 40.470611 -120.147797 349 38997ft 448kts
04-Oct-15 16:47 40.594646 -120.169195 349 38996ft 448kts
04-Oct-15 16:48 40.718913 -120.190714 349 38996ft 448kts
04-Oct-15 16:49 40.842381 -120.212176 349 38997ft 448kts
04-Oct-15 16:50 40.966414 -120.233817 349 38997ft 448kts
04-Oct-15 16:51 41.090397 -120.255531 349 38996ft 448kts
04-Oct-15 16:52 41.214536 -120.277356 349 38996ft 448kts
04-Oct-15 16:53 41.338511 -120.299235 349 38996ft 448kts
04-Oct-15 16:54 41.462534 -120.321207 349 38996ft 448kts
04-Oct-15 16:55 41.586632 -120.343278 349 38996ft 448kts
04-Oct-15 16:56 41.710081 -120.365318 349 38996ft 448kts
04-Oct-15 16:57 41.834249 -120.387574 349 38996ft 448kts
04-Oct-15 16:58 41.958253 -120.409887 349 38996ft 448kts
04-Oct-15 16:59 42.082139 -120.432267 349 38996ft 448kts
04-Oct-15 17:00 42.206091 -120.454706 349 38996ft 448kts
04-Oct-15 17:01 42.330176 -120.477295 349 38996ft 448kts
04-Oct-15 17:02 42.454138 -120.499997 349 38996ft 448kts
04-Oct-15 17:03 42.576612 -120.530592 343 38997ft 446kts
04-Oct-15 17:04 42.698012 -120.567687 344 38996ft 446kts
04-Oct-15 17:05 42.819776 -120.604507 344 38996ft 446kts
04-Oct-15 17:06 42.941217 -120.640922 344 38996ft 446kts
04-Oct-15 17:07 43.042440 -120.671394 344 38996ft 446kts
04-Oct-15 17:08 43.163973 -120.708127 344 38997ft 446kts
04-Oct-15 17:09 43.285474 -120.745007 344 38996ft 446kts
04-Oct-15 17:10 43.407092 -120.782074 344 38996ft 446kts
04-Oct-15 17:11 43.528627 -120.819270 344 38997ft 446kts
04-Oct-15 17:12 43.650131 -120.856610 344 38996ft 446kts
04-Oct-15 17:13 43.771703 -120.894127 344 38996ft 446kts
04-Oct-15 17:14 43.892746 -120.931636 344 38996ft 446kts
04-Oct-15 17:15 44.014310 -120.969464 344 38996ft 446kts
04-Oct-15 17:16 44.135782 -121.007423 344 38996ft 446kts
04-Oct-15 17:17 44.257191 -121.045522 344 38997ft 446kts
04-Oct-15 17:18 44.378706 -121.083817 344 38996ft 446kts
04-Oct-15 17:19 44.500076 -121.122229 343 38996ft 446kts
04-Oct-15 17:20 44.621545 -121.160836 343 38996ft 446kts
04-Oct-15 17:21 44.740728 -121.198879 343 38996ft 446kts
04-Oct-15 17:22 44.863853 -121.238349 343 38997ft 446kts
04-Oct-15 17:23 44.985308 -121.277454 343 38996ft 446kts
04-Oct-15 17:24 45.106627 -121.316685 343 38996ft 446kts
04-Oct-15 17:25 45.226279 -121.355545 343 38996ft 446kts
04-Oct-15 17:26 45.349193 -121.395640 343 38996ft 446kts
04-Oct-15 17:27 45.469714 -121.435128 343 38996ft 446kts
04-Oct-15 17:28 45.591439 -121.475187 343 38996ft 446kts
04-Oct-15 17:29 45.712698 -121.515270 343 38996ft 446kts
04-Oct-15 17:30 45.834329 -121.555656 343 38996ft 446kts
04-Oct-15 17:31 45.954652 -121.595787 343 38996ft 446kts
04-Oct-15 17:32 46.076006 -121.636443 343 38996ft 446kts
04-Oct-15 17:33 46.197172 -121.677220 343 38996ft 446kts
04-Oct-15 17:34 46.316631 -121.717604 343 38996ft 446kts
04-Oct-15 17:35 46.438560 -121.759010 343 38996ft 446kts
04-Oct-15 17:36 46.558095 -121.799788 343 38996ft 446kts
04-Oct-15 17:37 46.682069 -121.842277 343 38996ft 446kts
04-Oct-15 17:38 46.802393 -121.883706 343 38996ft 446kts
04-Oct-15 17:39 46.923921 -121.925744 343 38996ft 446kts
04-Oct-15 17:40 47.044910 -121.967791 343 38996ft 446kts
04-Oct-15 17:41 47.165429 -122.009871 343 38528ft 447kts
04-Oct-15 17:42 47.287893 -122.052831 343 35599ft 451kts
04-Oct-15 17:43 47.410098 -122.095904 343 32699ft 451kts
04-Oct-15 17:44 47.531610 -122.138940 343 29759ft 441kts
04-Oct-15 17:45 47.653130 -122.182064 343 26763ft 457kts
04-Oct-15 17:46 47.777366 -122.226509 343 23746ft 450kts
04-Oct-15 17:47 47.894222 -122.268576 343 20800ft 430kts
04-Oct-15 17:48 48.010291 -122.310038 340 17740ft 410kts
04-Oct-15 17:49 48.117601 -122.355837 340 14742ft 393kts
04-Oct-15 17:50 48.222798 -122.400946 340 11728ft 389kts
04-Oct-15 17:51 48.322835 -122.443927 340 11109ft 372kts
04-Oct-15 17:52 48.422683 -122.486763 340 11027ft 373kts
04-Oct-15 17:53 48.523618 -122.529917 340 11025ft 373kts
04-Oct-15 17:54 48.618543 -122.571446 340 10239ft 333kts
04-Oct-15 17:55 48.705278 -122.609360 340 8624ft 322kts
04-Oct-15 17:56 48.789713 -122.646339 339 6901ft 298kts
04-Oct-15 17:57 48.864450 -122.679097 340 6020ft 254kts
04-Oct-15 17:58 48.927716 -122.706844 339 6018ft 210kts
04-Oct-15 17:59 48.979420 -122.729680 339 6029ft 187kts
04-Oct-15 18:00 49.029975 -122.752090 339 6030ft 180kts
04-Oct-15 18:01 49.075898 -122.772495 338 6017ft 169kts
04-Oct-15 18:02 49.121139 -122.792614 338 6027ft 169kts
04-Oct-15 18:03 49.160233 -122.831551 299 5024ft 176kts
04-Oct-15 18:04 49.170602 -122.905658 281 3874ft 172kts
04-Oct-15 18:05 49.175670 -122.946052 281 3005ft 162kts
04-Oct-15 18:06 49.183644 -123.012629 279 1842ft 160kts
04-Oct-15 18:07 49.191315 -123.079201 279 925ft 159kts
04-Oct-15 18:08 49.198806 -123.144896 279 194ft 153kts
04-Oct-15 18:09 49.203448 -123.185776 279 22ft 32kts
04-Oct-15 18:10 49.203623 -123.193223 254 22ft 5kts
04-Oct-15 18:11 49.202393 -123.195411 95 22ft 9kts
04-Oct-15 18:12 49.201803 -123.190504 136 22ft 9kts
04-Oct-15 18:13 49.197173 -123.191293 188 22ft 21kts
04-Oct-15 18:14 49.192372 -123.187887 143 22ft 16kts
04-Oct-15 18:15 49.191085 -123.183831 72 22ft 17kts
04-Oct-15 18:16 49.191952 -123.181811 354 22ft 1kts
04-Oct-15 18:17 49.192324 -123.181862 354 22ft 0kts

Navigation Log

Ident Type
1. KLAX Airport
2. GHART Fix
3. AJAYE Fix
4. SILEX Fix
5. TWINE Fix
6. OROSZ Fix
7. CASTA Fix
8. GMN Navaid
9. FRA Navaid
10. LKV Navaid
11. CYVR Airport